CheckWX is a tool to help pilots better visualize weather data.  It is not intended as a substitute for an official pre-flight weather briefing.

08:13:43 UTC

KRQB METAR
Roben-Hood Airport
Big Rapids, Michigan, USA
Current

18 mins ago

KRQB 220756Z AUTO 00000KT 4SM BR CLR M10/M11 A3034 RMK AO2 T11051114
Observed
Feb-22 @ 07:56 UTC
Visibility
4 SM
Flight Rules
MVFR
Conditions
Mist
Cloud Levels
  • Clear skies
Temperature
-11°C / 12°F
Dewpoint
-11°C / 12°F
Humidity
100%
Altimeter
30.34" Hg
Pressure
1027.42 hPa
Previous

39 mins ago

KRQB 220735Z AUTO 00000KT 5SM BR CLR M11/M12 A3034 RMK AO2 T11111122
Observed
Feb-22 @ 07:35 UTC
Visibility
5 SM
Flight Rules
MVFR
Conditions
Mist
Cloud Levels
  • Clear skies
Temperature
-11°C / 12°F
Dewpoint
-12°C / 10°F
Humidity
92%
Altimeter
30.34" Hg
Pressure
1027.42 hPa
Previous

59 mins ago

KRQB 220715Z AUTO 00000KT 5SM BR CLR M10/M11 A3032 RMK AO2 T11001112
Observed
Feb-22 @ 07:15 UTC
Visibility
5 SM
Flight Rules
MVFR
Conditions
Mist
Cloud Levels
  • Clear skies
Temperature
-10°C / 14°F
Dewpoint
-11°C / 12°F
Humidity
92%
Altimeter
30.32" Hg
Pressure
1026.72 hPa